Skip Navigation LinksHome page > Weather > Current weather Skip Navigation Links

Current Weather

Indira Gandhi Intl Apt, New Delhi, India

For information only: do not use for flight planning or navigation.
Latest weather
Observation time Wednesday, January 18, 2017 7:00 PM IST
Local time Wednesday, January 18, 2017 7:30 PM IST
Flight conditions Low Instrument Meteorological Conditions
Winds
Wind direction Northwest (310°)
Wind speed 6 mph
Visibility 0.8 mi.
Present weather haze
Sky condition
Ceiling unlimited
Temperature 57°F
Dewpoint 45°F
Altimeter 30.15 in.Hg
Derived measurements
Relative humidity 63%
Density altitude 529 ft.
Remarks
No significant changes expected in the next two hours.
METAR VIDP 181330Z 31005KT 1300 R28/P2000 R29/P2000 HZ NSC 14/07 Q1021 NOSIG

Settings

Location code

InnerDrive.Weather 4.0.6144.1 Release CLR 4.0.30319.34209
Copyright ©2015 Inner Drive Technology. All rights reserved. Portions Copyright ©1986-2015 David Braverman.

Find weather

Site navigation


Skip Navigation Links

Place info

Page info

PayPal - The safer, easier way to pay online!

Return home.

Copyright ©2017 Inner Drive Technology. Purveyors of fine, hand-crafted computer software. Page printed 2017-01-18T14:00:06 UTC.